createdAt,value
2023-08-16T00:02:10.378Z,100254.78
2023-08-16T00:04:37.938Z,100249.59
2023-08-16T00:07:05.887Z,100254.09
2023-08-16T00:09:34.838Z,100255.16
2023-08-16T00:12:02.695Z,100254.28
2023-08-16T00:14:30.061Z,100264.75
2023-08-16T00:16:57.956Z,100261.59
2023-08-16T00:19:25.394Z,100249.13
2023-08-16T00:21:53.189Z,100252.44
2023-08-16T00:24:20.679Z,100265.28
2023-08-16T00:26:49.883Z,100277.47
2023-08-16T00:29:17.198Z,100278.81
2023-08-16T00:31:44.934Z,100272.13
2023-08-16T00:34:12.515Z,100257.41
2023-08-16T00:36:40.236Z,100260.03
2023-08-16T00:39:07.896Z,100264.72
2023-08-16T00:41:35.677Z,100266.94
2023-08-16T00:44:05.205Z,100276.19
2023-08-16T00:46:33.334Z,100273.34
2023-08-16T00:49:00.938Z,100271.13
2023-08-16T00:51:28.778Z,100270.41
2023-08-16T00:53:56.209Z,100276.31
2023-08-16T00:56:23.911Z,100281.16
2023-08-16T00:58:51.390Z,100280.63
2023-08-16T01:01:22.947Z,100275.53
2023-08-16T01:03:50.762Z,100279.97
2023-08-16T01:06:18.685Z,100287.41
2023-08-16T01:08:46.106Z,100279.69
2023-08-16T01:11:18.981Z,100289.47
2023-08-16T01:13:55.769Z,100291.97
2023-08-16T01:16:30.331Z,100287.63
2023-08-16T01:18:58.407Z,100287.75
2023-08-16T01:21:27.557Z,100283.13
2023-08-16T01:24:05.945Z,100289.66
2023-08-16T01:26:45.492Z,100289.06
2023-08-16T01:29:13.696Z,100289.06
2023-08-16T01:31:41.664Z,100281.97
2023-08-16T01:34:09.107Z,100285.25
2023-08-16T01:36:36.922Z,100288.22
2023-08-16T01:39:04.571Z,100287.38
2023-08-16T01:41:36.980Z,100280.16
2023-08-16T01:44:12.113Z,100285.63
2023-08-16T01:46:41.582Z,100300.03
2023-08-16T01:49:10.547Z,100306.25
2023-08-16T01:51:38.382Z,100304.88
2023-08-16T01:54:06.476Z,100305.28
2023-08-16T01:56:34.251Z,100311.63
2023-08-16T01:59:01.700Z,100312.81
2023-08-16T02:01:35.179Z,100317.75
2023-08-16T02:04:02.659Z,100314.72
2023-08-16T02:06:30.473Z,100316.50
2023-08-16T02:08:57.892Z,100316.72
2023-08-16T02:11:25.788Z,100315.25
2023-08-16T02:13:53.143Z,100306.47
2023-08-16T02:16:20.952Z,100300.88
2023-08-16T02:18:49.968Z,100300.44
2023-08-16T02:21:17.945Z,100295.72
2023-08-16T02:23:45.357Z,100300.31
2023-08-16T02:26:13.138Z,100290.94
2023-08-16T02:28:40.496Z,100297.88
2023-08-16T02:31:08.724Z,100287.88
2023-08-16T02:33:36.187Z,100289.31
2023-08-16T02:36:09.145Z,100299.06
2023-08-16T02:38:36.451Z,100299.88
2023-08-16T02:41:04.200Z,100306.72
2023-08-16T02:43:31.572Z,100302.91
2023-08-16T02:46:03.998Z,100298.84
2023-08-16T02:48:31.833Z,100296.50
2023-08-16T02:50:59.573Z,100314.06
2023-08-16T02:53:33.184Z,100304.56
2023-08-16T02:56:00.961Z,100305.81
2023-08-16T02:58:28.427Z,100308.28
2023-08-16T03:00:56.185Z,100308.25
2023-08-16T03:03:23.970Z,100318.66
2023-08-16T03:05:51.883Z,100311.59
2023-08-16T03:08:19.273Z,100309.44
2023-08-16T03:10:48.594Z,100307.56
2023-08-16T03:13:15.951Z,100311.72
2023-08-16T03:15:43.973Z,100309.72
2023-08-16T03:18:11.405Z,100312.16
2023-08-16T03:20:39.185Z,100324.06
2023-08-16T03:23:06.642Z,100324.00
2023-08-16T03:25:34.472Z,100329.47
2023-08-16T03:28:07.207Z,100334.06
2023-08-16T03:30:35.087Z,100333.59
2023-08-16T03:33:02.640Z,100337.75
2023-08-16T03:35:30.427Z,100338.16
2023-08-16T03:37:57.672Z,100346.50
2023-08-16T03:40:25.567Z,100341.22
2023-08-16T03:42:53.073Z,100345.22
2023-08-16T03:45:22.200Z,100338.91
2023-08-16T03:47:49.624Z,100336.78
2023-08-16T03:50:17.866Z,100336.22
2023-08-16T03:52:46.266Z,100334.06
2023-08-16T03:55:14.031Z,100341.66
2023-08-16T03:57:41.466Z,100345.84
2023-08-16T04:00:10.048Z,100357.88
2023-08-16T04:02:39.059Z,100356.22
2023-08-16T04:05:11.979Z,100358.00
2023-08-16T04:07:39.994Z,100363.09
2023-08-16T04:10:08.503Z,100352.56
2023-08-16T04:12:36.094Z,100354.06
2023-08-16T04:15:04.203Z,100352.94
2023-08-16T04:17:31.726Z,100359.22
2023-08-16T04:20:00.949Z,100360.69
2023-08-16T04:22:28.356Z,100360.72
2023-08-16T04:24:56.222Z,100367.84
2023-08-16T04:27:23.829Z,100365.84
2023-08-16T04:29:51.840Z,100368.09
2023-08-16T04:32:19.259Z,100370.66
2023-08-16T04:34:47.041Z,100370.44
2023-08-16T04:37:15.882Z,100375.56
2023-08-16T04:39:43.672Z,100386.31
2023-08-16T04:42:11.152Z,100385.84
2023-08-16T04:44:38.912Z,100383.34
2023-08-16T04:47:08.819Z,100381.94
2023-08-16T04:49:36.861Z,100391.75
2023-08-16T04:52:04.973Z,100400.59
2023-08-16T04:54:34.056Z,100393.91
2023-08-16T04:57:01.501Z,100394.41
2023-08-16T04:59:29.238Z,100400.34
2023-08-16T05:01:56.655Z,100389.41
2023-08-16T05:04:29.016Z,100398.47
2023-08-16T05:06:56.459Z,100400.63
2023-08-16T05:09:24.334Z,100395.28
2023-08-16T05:11:57.150Z,100394.97
2023-08-16T05:14:25.002Z,100393.28
2023-08-16T05:16:52.465Z,100392.03
2023-08-16T05:19:20.366Z,100401.66
2023-08-16T05:21:47.771Z,100409.00
2023-08-16T05:24:20.034Z,100407.09
2023-08-16T05:26:47.469Z,100407.47
2023-08-16T05:29:20.098Z,100413.16
2023-08-16T05:31:47.489Z,100413.19
2023-08-16T05:34:15.302Z,100414.69
2023-08-16T05:36:47.237Z,100417.44
2023-08-16T05:39:19.102Z,100414.66
2023-08-16T05:41:46.379Z,100423.09
2023-08-16T05:44:14.196Z,100416.47
2023-08-16T05:46:43.116Z,100422.63
2023-08-16T05:49:11.650Z,100425.59
2023-08-16T05:51:39.053Z,100435.72
2023-08-16T05:54:06.984Z,100424.47
2023-08-16T05:56:34.318Z,100432.50
2023-08-16T05:59:02.198Z,100438.81
2023-08-16T06:01:29.712Z,100438.50
2023-08-16T06:04:03.263Z,100440.66
2023-08-16T06:06:30.764Z,100442.50
2023-08-16T06:08:58.591Z,100436.38
2023-08-16T06:11:26.062Z,100433.34
2023-08-16T06:13:54.012Z,100437.97
2023-08-16T06:16:21.510Z,100430.13
2023-08-16T06:18:49.254Z,100441.31
2023-08-16T06:21:23.551Z,100449.09
2023-08-16T06:23:54.642Z,100441.44
2023-08-16T06:26:28.080Z,100444.03
2023-08-16T06:28:55.963Z,100438.56
2023-08-16T06:31:23.394Z,100433.13
2023-08-16T06:33:51.205Z,100442.59
2023-08-16T06:36:24.114Z,100441.53
2023-08-16T06:38:51.809Z,100439.34
2023-08-16T06:41:19.100Z,100438.28
2023-08-16T06:43:46.939Z,100441.59
2023-08-16T06:46:14.563Z,100444.66
2023-08-16T06:48:42.465Z,100435.84
2023-08-16T06:51:09.938Z,100433.63
2023-08-16T06:53:39.142Z,100429.44
2023-08-16T06:56:06.549Z,100434.09
2023-08-16T06:58:34.324Z,100436.56
2023-08-16T07:01:02.020Z,100444.78
2023-08-16T07:03:30.015Z,100441.97
2023-08-16T07:06:00.328Z,100430.59
2023-08-16T07:08:29.671Z,100443.84
2023-08-16T07:10:58.607Z,100445.38
2023-08-16T07:13:26.444Z,100439.78
2023-08-16T07:15:53.872Z,100433.53
2023-08-16T07:18:21.818Z,100434.44
2023-08-16T07:20:49.263Z,100436.19
2023-08-16T07:23:17.211Z,100434.66
2023-08-16T07:25:44.681Z,100435.84
2023-08-16T07:28:13.966Z,100431.81
2023-08-16T07:30:41.391Z,100424.22
2023-08-16T07:33:09.276Z,100425.94
2023-08-16T07:35:36.816Z,100428.91
2023-08-16T07:38:05.027Z,100426.94
2023-08-16T07:40:32.962Z,100427.25
2023-08-16T07:43:00.967Z,100432.38
2023-08-16T07:45:29.993Z,100432.13
2023-08-16T07:47:57.820Z,100436.53
2023-08-16T07:50:25.380Z,100442.44
2023-08-16T07:52:53.230Z,100441.75
2023-08-16T07:55:24.153Z,100444.03
2023-08-16T07:57:52.038Z,100443.72
2023-08-16T08:00:19.592Z,100438.00
2023-08-16T08:03:00.182Z,100439.84
2023-08-16T08:05:28.128Z,100431.34
2023-08-16T08:07:56.131Z,100437.28
2023-08-16T08:10:23.786Z,100437.63
2023-08-16T08:12:51.672Z,100434.34
2023-08-16T08:15:21.874Z,100439.41
2023-08-16T08:17:49.760Z,100437.28
2023-08-16T08:20:22.132Z,100440.25
2023-08-16T08:22:50.041Z,100435.72
2023-08-16T08:25:17.774Z,100441.47
2023-08-16T08:27:45.653Z,100443.84
2023-08-16T08:30:13.874Z,100443.94
2023-08-16T08:32:41.635Z,100444.25
2023-08-16T08:35:09.551Z,100450.50
2023-08-16T08:37:43.132Z,100449.81
2023-08-16T08:40:10.891Z,100461.31
2023-08-16T08:42:40.813Z,100461.56
2023-08-16T08:45:09.843Z,100467.69
2023-08-16T08:47:39.059Z,100457.63
2023-08-16T08:50:07.837Z,100454.63
2023-08-16T08:52:35.788Z,100456.59
2023-08-16T08:55:09.879Z,100460.41
2023-08-16T08:57:38.357Z,100457.63
2023-08-16T09:00:07.405Z,100463.81
2023-08-16T09:02:37.518Z,100465.53
2023-08-16T09:05:08.082Z,100460.44
2023-08-16T09:07:41.182Z,100459.72
2023-08-16T09:10:11.212Z,100462.03
2023-08-16T09:12:39.410Z,100465.78
2023-08-16T09:15:09.123Z,100471.53
2023-08-16T09:17:37.591Z,100469.00
2023-08-16T09:20:05.970Z,100468.00
2023-08-16T09:22:33.753Z,100472.34
2023-08-16T09:25:03.571Z,100469.13
2023-08-16T09:27:32.930Z,100470.81
2023-08-16T09:30:00.456Z,100460.28
2023-08-16T09:32:30.480Z,100454.91
2023-08-16T09:35:00.181Z,100460.31
2023-08-16T09:37:31.962Z,100459.16
2023-08-16T09:39:59.881Z,100459.50
2023-08-16T09:42:35.454Z,100457.03
2023-08-16T09:45:03.543Z,100450.28
2023-08-16T09:47:59.424Z,100440.75
2023-08-16T09:50:28.832Z,100447.16
2023-08-16T09:52:57.844Z,100448.31
2023-08-16T09:55:30.827Z,100437.13
2023-08-16T09:58:04.448Z,100442.69
2023-08-16T10:00:31.896Z,100440.38
2023-08-16T10:02:59.787Z,100432.19
2023-08-16T10:05:28.619Z,100431.81
2023-08-16T10:08:14.538Z,100437.91
2023-08-16T10:10:42.796Z,100435.88
2023-08-16T10:13:13.272Z,100440.41
2023-08-16T10:15:43.723Z,100429.22
2023-08-16T10:18:13.957Z,100434.41
2023-08-16T10:20:45.729Z,100430.97
2023-08-16T10:23:19.735Z,100434.00
2023-08-16T10:25:50.084Z,100429.88
2023-08-16T10:28:23.068Z,100427.78
2023-08-16T10:33:33.819Z,100434.63
2023-08-16T10:36:07.502Z,100439.38
2023-08-16T10:38:38.054Z,100438.94
2023-08-16T10:41:14.037Z,100434.97
2023-08-16T10:43:50.704Z,100435.00
2023-08-16T10:46:28.654Z,100431.69
2023-08-16T10:48:59.685Z,100435.16
2023-08-16T10:51:29.960Z,100441.75
2023-08-16T10:54:02.218Z,100433.03
2023-08-16T10:56:37.493Z,100437.94
2023-08-16T10:59:12.202Z,100442.72
2023-08-16T11:01:46.963Z,100443.13
2023-08-16T11:04:15.348Z,100431.69
2023-08-16T11:06:55.801Z,100434.09
2023-08-16T11:09:29.894Z,100433.97
2023-08-16T11:12:02.040Z,100436.31
2023-08-16T11:14:31.432Z,100436.38
2023-08-16T11:16:58.885Z,100430.66
2023-08-16T11:19:26.974Z,100439.88
2023-08-16T11:22:01.816Z,100433.81
2023-08-16T11:24:30.139Z,100428.47
2023-08-16T11:26:57.646Z,100427.34
2023-08-16T11:29:25.473Z,100427.09
2023-08-16T11:32:03.528Z,100423.44
2023-08-16T11:34:32.806Z,100422.59
2023-08-16T11:37:00.268Z,100430.59
2023-08-16T11:39:28.143Z,100425.78
2023-08-16T11:41:59.500Z,100418.78
2023-08-16T11:44:42.494Z,100427.84
2023-08-16T11:47:18.501Z,100426.91
2023-08-16T11:49:53.500Z,100425.50
2023-08-16T11:52:21.906Z,100427.88
2023-08-16T11:55:08.560Z,100426.59
2023-08-16T11:57:44.299Z,100424.50
2023-08-16T12:00:27.504Z,100414.13
2023-08-16T12:03:02.979Z,100410.59
2023-08-16T12:05:35.045Z,100408.78
2023-08-16T12:08:10.538Z,100405.75
2023-08-16T12:10:38.572Z,100410.75
2023-08-16T12:13:13.150Z,100407.47
2023-08-16T12:15:41.776Z,100405.91
2023-08-16T12:18:14.421Z,100402.69
2023-08-16T12:20:44.882Z,100403.09
2023-08-16T12:23:12.645Z,100395.19
2023-08-16T12:25:40.788Z,100388.44
2023-08-16T12:28:08.281Z,100398.94
2023-08-16T12:30:41.220Z,100396.44
2023-08-16T12:33:13.825Z,100392.53
2023-08-16T12:35:42.722Z,100395.75
2023-08-16T12:38:10.440Z,100393.94
2023-08-16T12:40:38.356Z,100387.50
2023-08-16T12:45:38.599Z,100393.75
2023-08-16T12:48:15.005Z,100387.97
2023-08-16T12:50:43.172Z,100388.25
2023-08-16T12:55:43.011Z,100398.38
2023-08-16T12:58:21.401Z,100394.84
2023-08-16T13:00:49.605Z,100385.75
2023-08-16T13:03:32.188Z,100386.31
2023-08-16T13:08:32.229Z,100372.56
2023-08-16T13:11:09.677Z,100377.22
2023-08-16T13:13:43.653Z,100377.88
2023-08-16T13:16:12.734Z,100377.19
2023-08-16T13:18:46.368Z,100377.13
2023-08-16T13:21:20.161Z,100369.09
2023-08-16T13:24:05.234Z,100370.38
2023-08-16T13:26:40.176Z,100378.25
2023-08-16T13:29:24.561Z,100367.03
2023-08-16T13:32:01.230Z,100368.56
2023-08-16T13:37:04.881Z,100363.00
2023-08-16T13:40:01.770Z,100366.97
2023-08-16T13:47:31.651Z,100356.03
2023-08-16T13:50:00.568Z,100353.41
2023-08-16T13:52:33.142Z,100356.28
2023-08-16T13:55:00.607Z,100360.09
2023-08-16T13:57:28.529Z,100357.09
2023-08-16T13:59:56.221Z,100358.13
2023-08-16T14:02:30.481Z,100362.44
2023-08-16T14:04:58.156Z,100354.13
2023-08-16T14:07:31.263Z,100358.41
2023-08-16T14:10:00.471Z,100360.50
2023-08-16T14:12:28.262Z,100360.97
2023-08-16T14:14:55.718Z,100362.41
2023-08-16T14:17:23.553Z,100366.66
2023-08-16T14:19:51.011Z,100363.13
2023-08-16T14:22:18.865Z,100366.28
2023-08-16T14:24:47.828Z,100354.69
2023-08-16T14:27:15.748Z,100355.97
2023-08-16T14:29:43.292Z,100353.59
2023-08-16T14:32:11.152Z,100351.88
2023-08-16T14:34:38.594Z,100349.22
2023-08-16T14:37:06.564Z,100349.94
2023-08-16T14:39:33.956Z,100350.94
2023-08-16T14:42:03.369Z,100353.00
2023-08-16T14:44:30.861Z,100351.78
2023-08-16T14:46:58.908Z,100350.63
2023-08-16T14:49:26.507Z,100354.78
2023-08-16T14:51:54.604Z,100352.31
2023-08-16T14:54:22.099Z,100346.06
2023-08-16T14:56:49.955Z,100346.53
2023-08-16T14:59:23.217Z,100350.63
2023-08-16T15:01:51.020Z,100350.81
2023-08-16T15:04:18.485Z,100354.88
2023-08-16T15:06:46.397Z,100356.88
2023-08-16T15:09:13.943Z,100353.25
2023-08-16T15:11:41.936Z,100346.34
2023-08-16T15:14:09.378Z,100348.00
2023-08-16T15:16:38.600Z,100348.53
2023-08-16T15:19:06.034Z,100342.28
2023-08-16T15:21:33.951Z,100345.25
2023-08-16T15:24:01.470Z,100352.47
2023-08-16T15:26:29.334Z,100341.44
2023-08-16T15:28:56.744Z,100341.31
2023-08-16T15:31:24.871Z,100335.53
2023-08-16T15:33:53.671Z,100334.22
2023-08-16T15:36:21.480Z,100330.25
2023-08-16T15:38:52.316Z,100331.91
2023-08-16T15:41:20.997Z,100327.97
2023-08-16T15:43:48.529Z,100321.88
2023-08-16T15:46:16.537Z,100313.41
2023-08-16T15:48:44.101Z,100312.91
2023-08-16T15:51:13.399Z,100314.56
2023-08-16T15:53:41.010Z,100307.47
2023-08-16T15:56:08.862Z,100311.28
2023-08-16T15:58:36.212Z,100308.16
2023-08-16T16:01:05.467Z,100311.25
2023-08-16T16:03:33.194Z,100317.00
2023-08-16T16:06:01.132Z,100310.09
2023-08-16T16:08:30.872Z,100304.50
2023-08-16T16:10:58.797Z,100299.56
2023-08-16T16:13:26.294Z,100303.19
2023-08-16T16:15:54.337Z,100304.53
2023-08-16T16:18:22.409Z,100307.47
2023-08-16T16:20:50.350Z,100312.38
2023-08-16T16:23:17.840Z,100313.38
2023-08-16T16:25:51.070Z,100324.88
2023-08-16T16:28:18.484Z,100325.19
2023-08-16T16:30:46.409Z,100326.00
2023-08-16T16:33:13.767Z,100328.88
2023-08-16T16:35:41.679Z,100336.22
2023-08-16T16:38:09.143Z,100330.63
2023-08-16T16:40:36.941Z,100335.44
2023-08-16T16:43:10.208Z,100338.31
2023-08-16T16:45:38.002Z,100340.53
2023-08-16T16:48:06.153Z,100336.59
2023-08-16T16:50:34.081Z,100339.94
2023-08-16T16:53:01.481Z,100339.16
2023-08-16T16:55:29.263Z,100336.13
2023-08-16T16:57:56.764Z,100335.69
2023-08-16T17:00:30.131Z,100337.44
2023-08-16T17:02:57.510Z,100332.25
2023-08-16T17:05:25.318Z,100327.22
2023-08-16T17:07:52.841Z,100331.44
2023-08-16T17:10:20.630Z,100326.13
2023-08-16T17:12:48.145Z,100322.19
2023-08-16T17:15:16.062Z,100320.63
2023-08-16T17:17:47.451Z,100312.13
2023-08-16T17:20:15.612Z,100323.41
2023-08-16T17:22:43.016Z,100322.28
2023-08-16T17:25:11.671Z,100321.47
2023-08-16T17:27:39.175Z,100322.50
2023-08-16T17:30:08.753Z,100318.69
2023-08-16T17:32:36.268Z,100324.75
2023-08-16T17:35:05.634Z,100327.75
2023-08-16T17:37:33.599Z,100330.22
2023-08-16T17:40:01.012Z,100329.41
2023-08-16T17:42:28.849Z,100337.72
2023-08-16T17:44:56.270Z,100337.56
2023-08-16T17:47:24.362Z,100338.88
2023-08-16T17:49:52.113Z,100335.38
2023-08-16T17:52:21.388Z,100334.22
2023-08-16T17:54:48.852Z,100337.03
2023-08-16T17:57:21.043Z,100324.97
2023-08-16T17:59:48.560Z,100328.72
2023-08-16T18:02:16.573Z,100333.03
2023-08-16T18:04:44.107Z,100330.72
2023-08-16T18:07:25.501Z,100328.44
2023-08-16T18:09:53.240Z,100333.50
2023-08-16T18:12:23.507Z,100333.09
2023-08-16T18:14:54.006Z,100332.25
2023-08-16T18:17:22.436Z,100335.50
2023-08-16T18:19:49.961Z,100331.03
2023-08-16T18:22:18.171Z,100342.03
2023-08-16T18:24:47.111Z,100345.94
2023-08-16T18:27:19.098Z,100341.56
2023-08-16T18:29:46.633Z,100352.63
2023-08-16T18:32:14.592Z,100353.44
2023-08-16T18:34:42.036Z,100344.22
2023-08-16T18:37:14.208Z,100349.06
2023-08-16T18:39:41.930Z,100351.53
2023-08-16T18:42:11.103Z,100349.13
2023-08-16T18:44:38.702Z,100346.59
2023-08-16T18:47:06.906Z,100357.75
2023-08-16T18:49:34.334Z,100358.06
2023-08-16T18:52:05.517Z,100363.59
2023-08-16T18:54:33.115Z,100369.25
2023-08-16T18:57:00.996Z,100379.19
2023-08-16T18:59:41.524Z,100378.25
2023-08-16T19:02:09.513Z,100383.13
2023-08-16T19:04:37.079Z,100392.16
2023-08-16T19:07:05.581Z,100390.66
2023-08-16T19:09:33.174Z,100389.28
2023-08-16T19:12:01.092Z,100397.66
2023-08-16T19:14:35.138Z,100399.84
2023-08-16T19:17:04.834Z,100410.94
2023-08-16T19:19:32.326Z,100405.72
2023-08-16T19:22:05.673Z,100408.50
2023-08-16T19:24:33.319Z,100406.03
2023-08-16T19:27:01.269Z,100411.03
2023-08-16T19:29:34.250Z,100408.91
2023-08-16T19:32:02.124Z,100407.28
2023-08-16T19:34:33.502Z,100413.38
2023-08-16T19:37:06.234Z,100406.72
2023-08-16T19:39:33.823Z,100412.31
2023-08-16T19:42:01.846Z,100406.84
2023-08-16T19:44:30.759Z,100409.38
2023-08-16T19:47:03.516Z,100413.38
2023-08-16T19:49:30.956Z,100411.94
2023-08-16T19:51:59.136Z,100409.72
2023-08-16T19:54:26.996Z,100407.25
2023-08-16T19:56:55.045Z,100408.66
2023-08-16T19:59:22.624Z,100400.09
2023-08-16T20:01:56.142Z,100402.06
2023-08-16T20:04:23.699Z,100406.00
2023-08-16T20:06:57.301Z,100410.13
2023-08-16T20:09:24.834Z,100409.31
2023-08-16T20:11:52.509Z,100410.69
2023-08-16T20:14:20.056Z,100402.41
2023-08-16T20:16:53.561Z,100399.91
2023-08-16T20:19:21.093Z,100393.84
2023-08-16T20:21:48.992Z,100404.88
2023-08-16T20:24:16.775Z,100401.56
2023-08-16T20:26:44.733Z,100409.00
2023-08-16T20:29:12.092Z,100415.34
2023-08-16T20:31:40.133Z,100409.56
2023-08-16T20:34:17.527Z,100415.63
2023-08-16T20:36:45.566Z,100415.09
2023-08-16T20:39:13.130Z,100421.34
2023-08-16T20:41:45.872Z,100429.31
2023-08-16T20:44:13.554Z,100441.72
2023-08-16T20:46:45.179Z,100444.16
2023-08-16T20:49:18.287Z,100458.47
2023-08-16T20:51:50.512Z,100454.91
2023-08-16T20:54:18.342Z,100469.75
2023-08-16T20:56:46.165Z,100475.16
2023-08-16T20:59:13.652Z,100492.41
2023-08-16T21:01:43.919Z,100508.66
2023-08-16T21:04:18.108Z,100520.47
2023-08-16T21:06:45.915Z,100517.56
2023-08-16T21:09:13.450Z,100496.97
2023-08-16T21:11:41.399Z,100507.75
2023-08-16T21:14:08.761Z,100511.34
2023-08-16T21:16:36.645Z,100520.25
2023-08-16T21:19:04.386Z,100522.59
2023-08-16T21:21:33.847Z,100531.59
2023-08-16T21:24:01.360Z,100536.31
2023-08-16T21:26:29.298Z,100536.16
2023-08-16T21:28:57.173Z,100547.81
2023-08-16T21:31:25.801Z,100537.47
2023-08-16T21:33:53.565Z,100528.19
2023-08-16T21:36:24.162Z,100533.91
2023-08-16T21:38:54.161Z,100524.91
2023-08-16T21:41:21.999Z,100527.66
2023-08-16T21:43:49.469Z,100545.41
2023-08-16T21:46:18.497Z,100538.19
2023-08-16T21:48:46.047Z,100534.41
2023-08-16T21:51:14.048Z,100530.75
2023-08-16T21:53:41.384Z,100527.94
2023-08-16T21:56:14.442Z,100523.94
2023-08-16T21:58:42.117Z,100516.50
2023-08-16T22:01:10.085Z,100501.63
2023-08-16T22:03:37.790Z,100479.66
2023-08-16T22:06:05.731Z,100464.06
2023-08-16T22:08:33.186Z,100459.81
2023-08-16T22:11:01.575Z,100463.41
2023-08-16T22:13:34.167Z,100477.34
2023-08-16T22:16:02.097Z,100479.63
2023-08-16T22:18:29.631Z,100489.41
2023-08-16T22:21:03.037Z,100513.22
2023-08-16T22:23:32.128Z,100522.50
2023-08-16T22:26:00.084Z,100520.94
2023-08-16T22:28:27.665Z,100518.44
2023-08-16T22:30:56.794Z,100527.16
2023-08-16T22:33:24.227Z,100531.19
2023-08-16T22:35:52.743Z,100531.19
2023-08-16T22:38:20.209Z,100524.72
2023-08-16T22:40:48.039Z,100524.38
2023-08-16T22:43:15.568Z,100511.53
2023-08-16T22:45:43.434Z,100516.50
2023-08-16T22:48:12.371Z,100510.66
2023-08-16T22:50:40.239Z,100502.75
2023-08-16T22:53:07.752Z,100492.28
2023-08-16T22:55:35.512Z,100480.25
2023-08-16T22:58:02.977Z,100486.81
2023-08-16T23:00:30.854Z,100482.44
2023-08-16T23:02:58.432Z,100478.28
2023-08-16T23:05:27.631Z,100467.91
2023-08-16T23:07:55.011Z,100474.91
2023-08-16T23:10:22.912Z,100481.06
2023-08-16T23:12:50.270Z,100477.41
2023-08-16T23:15:18.359Z,100466.31
2023-08-16T23:17:45.834Z,100461.66
2023-08-16T23:20:13.714Z,100470.06
2023-08-16T23:22:42.565Z,100469.72
2023-08-16T23:25:11.092Z,100473.75
2023-08-16T23:27:38.803Z,100475.78
2023-08-16T23:30:07.720Z,100497.19
2023-08-16T23:32:35.641Z,100491.22
2023-08-16T23:35:03.504Z,100484.66
2023-08-16T23:37:32.193Z,100476.94
2023-08-16T23:40:01.055Z,100473.00
2023-08-16T23:42:28.870Z,100460.47
2023-08-16T23:44:56.365Z,100462.94
2023-08-16T23:47:24.640Z,100461.91
2023-08-16T23:49:52.426Z,100453.03
2023-08-16T23:52:20.223Z,100449.22
2023-08-16T23:54:47.608Z,100449.28
2023-08-16T23:57:21.051Z,100446.22
2023-08-16T23:59:48.362Z,100447.19
